createdAt,value
2022-08-03T00:09:13.973Z,18.86
2022-08-03T00:20:11.357Z,18.79
2022-08-03T00:31:13.578Z,18.86
2022-08-03T00:42:13.269Z,18.83
2022-08-03T00:53:11.900Z,18.84
2022-08-03T01:03:58.059Z,18.76
2022-08-03T01:14:46.471Z,18.76
2022-08-03T01:25:48.007Z,18.58
2022-08-03T01:36:52.202Z,18.53
2022-08-03T01:47:46.117Z,18.39
2022-08-03T01:58:43.508Z,18.18
2022-08-03T02:09:41.912Z,18.06
2022-08-03T02:20:40.346Z,17.94
2022-08-03T02:31:42.662Z,17.82
2022-08-03T02:42:44.240Z,17.73
2022-08-03T02:53:39.818Z,17.63
2022-08-03T03:04:54.983Z,17.54
2022-08-03T03:15:43.762Z,17.70
2022-08-03T03:26:42.531Z,17.70
2022-08-03T03:37:44.954Z,17.55
2022-08-03T03:48:47.318Z,17.44
2022-08-03T03:59:49.077Z,17.35
2022-08-03T04:10:50.637Z,17.33
2022-08-03T04:21:38.659Z,17.33
2022-08-03T04:32:36.327Z,17.54
2022-08-03T04:43:32.963Z,18.02
2022-08-03T04:54:33.967Z,18.47
2022-08-03T05:05:49.623Z,18.79
2022-08-03T05:16:41.430Z,19.11
2022-08-03T05:27:42.482Z,19.61
2022-08-03T05:38:44.068Z,19.93
2022-08-03T05:49:45.433Z,20.09
2022-08-03T06:00:47.082Z,20.50
2022-08-03T06:11:43.607Z,20.64
2022-08-03T06:22:50.858Z,20.87
2022-08-03T06:34:30.489Z,21.39
2022-08-03T06:44:42.451Z,22.07
2022-08-03T06:55:42.280Z,22.42
2022-08-03T07:06:44.709Z,23.07
2022-08-03T07:17:46.461Z,23.71
2022-08-03T07:28:38.346Z,23.86
2022-08-03T07:39:33.885Z,24.38
2022-08-03T07:50:32.286Z,24.48
2022-08-03T08:01:27.614Z,24.73
2022-08-03T08:12:21.082Z,25.17
2022-08-03T08:23:41.734Z,25.27
2022-08-03T08:34:03.938Z,25.77
2022-08-03T08:44:38.570Z,25.90
2022-08-03T08:55:20.742Z,26.35
2022-08-03T09:06:09.861Z,26.64
2022-08-03T09:16:44.101Z,26.79
2022-08-03T09:27:29.959Z,26.94
2022-08-03T09:38:30.036Z,27.58
2022-08-03T09:49:21.720Z,27.38
2022-08-03T10:00:24.060Z,27.82
2022-08-03T10:11:24.228Z,28.02
2022-08-03T10:22:23.302Z,28.29
2022-08-03T10:33:51.328Z,27.87
2022-08-03T10:44:21.034Z,29.53
2022-08-03T10:55:13.459Z,29.31
2022-08-03T11:06:15.088Z,29.75
2022-08-03T11:17:14.620Z,30.92
2022-08-03T11:28:04.925Z,31.36
2022-08-03T11:39:00.235Z,32.24
2022-08-03T11:49:50.245Z,35.46
2022-08-03T12:00:43.747Z,33.88
2022-08-03T12:11:56.214Z,35.54
2022-08-03T12:22:50.795Z,34.83
2022-08-03T12:33:52.161Z,35.87
2022-08-03T12:44:59.751Z,35.38
2022-08-03T12:56:04.565Z,36.78
2022-08-03T13:07:02.626Z,35.82
2022-08-03T13:18:02.074Z,38.64
2022-08-03T13:28:56.664Z,37.08
2022-08-03T13:39:58.862Z,38.76
2022-08-03T13:50:50.776Z,36.29
2022-08-03T14:01:55.454Z,33.36
2022-08-03T14:12:49.400Z,32.92
2022-08-03T14:23:42.783Z,34.62
2022-08-03T14:34:46.882Z,35.66
2022-08-03T14:45:49.693Z,35.20
2022-08-03T14:56:52.725Z,37.19
2022-08-03T15:07:51.025Z,36.22
2022-08-03T15:18:38.502Z,33.47
2022-08-03T15:30:07.512Z,32.42
2022-08-03T15:40:35.889Z,31.39
2022-08-03T15:51:32.181Z,31.16
2022-08-03T16:02:32.700Z,30.40
2022-08-03T16:14:13.514Z,29.92
2022-08-03T16:24:32.644Z,29.58
2022-08-03T16:35:28.040Z,29.38
2022-08-03T16:46:28.016Z,28.53
2022-08-03T16:57:55.660Z,29.14
2022-08-03T17:08:28.229Z,28.43
2022-08-03T17:19:20.744Z,27.87
2022-08-03T17:30:19.233Z,27.53
2022-08-03T17:41:16.847Z,27.20
2022-08-03T17:52:17.298Z,26.84
2022-08-03T18:03:10.056Z,26.49
2022-08-03T18:14:16.442Z,26.15
2022-08-03T18:25:09.096Z,25.65
2022-08-03T18:36:17.356Z,25.00
2022-08-03T18:47:16.977Z,24.57
2022-08-03T18:58:18.070Z,24.19
2022-08-03T19:09:18.041Z,23.75
2022-08-03T19:19:56.473Z,23.60
2022-08-03T19:30:53.500Z,23.43
2022-08-03T19:41:45.647Z,23.15
2022-08-03T19:52:42.266Z,22.79
2022-08-03T20:03:43.117Z,22.50
2022-08-03T20:14:41.263Z,22.20
2022-08-03T20:25:38.986Z,21.92
2022-08-03T20:36:29.010Z,21.70
2022-08-03T20:47:29.060Z,21.54
2022-08-03T20:58:25.315Z,21.48
2022-08-03T21:09:19.761Z,21.48
2022-08-03T21:20:11.925Z,21.51
2022-08-03T21:31:13.111Z,21.36
2022-08-03T21:42:05.485Z,21.38
2022-08-03T21:53:06.978Z,20.87
2022-08-03T22:04:03.877Z,20.75
2022-08-03T22:15:06.514Z,20.59
2022-08-03T22:26:07.923Z,20.38
2022-08-03T22:37:09.004Z,20.26
2022-08-03T22:47:52.471Z,20.09
2022-08-03T22:58:53.627Z,20.12
2022-08-03T23:09:39.306Z,19.94
2022-08-03T23:20:41.667Z,19.79
2022-08-03T23:31:43.103Z,19.55
2022-08-03T23:42:41.787Z,19.36
2022-08-03T23:53:33.109Z,19.40
